TimePDT,TemperatureF,Dew PointF,Humidity,Sea Level PressureIn,VisibilityMPH,Wind Direction,Wind SpeedMPH,Gust SpeedMPH,PrecipitationIn,Events,Conditions,WindDirDegrees,DateUTC
12:53 AM,51.1,45.0,80,30.09,10.0,SW,6.9,-,N/A,,Clear,230,2013-05-18 07:53:00
1:53 AM,51.1,46.0,83,30.08,10.0,SW,6.9,-,N/A,,Clear,230,2013-05-18 08:53:00
2:22 AM,51.8,46.4,82,30.09,10.0,SW,6.9,-,N/A,,Mostly Cloudy,230,2013-05-18 09:22:00
2:53 AM,52.0,46.0,80,30.09,10.0,WSW,4.6,-,N/A,,Mostly Cloudy,240,2013-05-18 09:53:00
3:53 AM,52.0,46.0,80,30.09,10.0,SSW,3.5,-,N/A,,Mostly Cloudy,210,2013-05-18 10:53:00
4:14 AM,51.8,46.4,82,30.09,10.0,SSW,4.6,-,N/A,,Scattered Clouds,210,2013-05-18 11:14:00
4:53 AM,51.1,46.0,83,30.08,10.0,SSW,4.6,-,N/A,,Clear,210,2013-05-18 11:53:00
5:53 AM,50.0,45.0,83,30.09,10.0,SW,5.8,-,N/A,,Scattered Clouds,220,2013-05-18 12:53:00
6:53 AM,51.1,46.0,83,30.12,10.0,West,3.5,-,N/A,,Partly Cloudy,260,2013-05-18 13:53:00
7:32 AM,53.6,46.4,77,30.13,10.0,WNW,3.5,-,N/A,,Mostly Cloudy,290,2013-05-18 14:32:00
7:53 AM,54.0,46.0,75,30.13,10.0,Variable,3.5,-,N/A,,Mostly Cloudy,0,2013-05-18 14:53:00
8:53 AM,57.0,46.9,69,30.13,10.0,Variable,5.8,-,N/A,,Scattered Clouds,0,2013-05-18 15:53:00
9:53 AM,59.0,46.9,64,30.13,10.0,Calm,Calm,-,N/A,,Clear,0,2013-05-18 16:53:00
10:53 AM,63.0,46.9,56,30.13,10.0,Variable,5.8,-,N/A,,Clear,0,2013-05-18 17:53:00
12:53 PM,72.0,46.0,40,30.11,10.0,WSW,9.2,-,N/A,,Clear,250,2013-05-18 19:53:00
1:53 PM,75.0,46.0,36,30.09,10.0,WSW,11.5,-,N/A,,Clear,250,2013-05-18 20:53:00
2:53 PM,77.0,46.0,33,30.09,10.0,West,11.5,-,N/A,,Clear,280,2013-05-18 21:53:00
3:53 PM,75.0,46.0,36,30.08,10.0,West,13.8,-,N/A,,Clear,280,2013-05-18 22:53:00
4:53 PM,73.9,45.0,35,30.08,10.0,West,15.0,-,N/A,,Clear,260,2013-05-18 23:53:00
5:53 PM,73.0,42.1,33,30.07,10.0,West,11.5,-,N/A,,Clear,270,2013-05-19 00:53:00
6:53 PM,70.0,50.0,49,30.07,10.0,WNW,10.4,-,N/A,,Clear,300,2013-05-19 01:53:00
7:53 PM,64.9,48.0,54,30.08,10.0,South,8.1,-,N/A,,Clear,180,2013-05-19 02:53:00
8:53 PM,60.1,51.1,72,30.09,10.0,WSW,6.9,-,N/A,,Clear,240,2013-05-19 03:53:00
9:53 PM,59.0,51.1,75,30.10,10.0,WSW,13.8,-,N/A,,Clear,240,2013-05-19 04:53:00
10:53 PM,57.9,51.1,78,30.10,10.0,SW,9.2,-,N/A,,Clear,230,2013-05-19 05:53:00
11:53 PM,57.0,48.9,74,30.10,10.0,WSW,3.5,-,N/A,,Clear,250,2013-05-19 06:53:00